createdAt,value
2018-12-02T00:00:40.873Z,29.67
2018-12-02T00:03:10.195Z,28.10
2018-12-02T00:05:40.048Z,28.80
2018-12-02T00:08:08.996Z,29.60
2018-12-02T00:10:38.192Z,26.97
2018-12-02T00:13:07.132Z,27.57
2018-12-02T00:15:38.170Z,28.03
2018-12-02T00:18:09.618Z,27.47
2018-12-02T00:20:39.619Z,25.83
2018-12-02T00:23:10.272Z,26.00
2018-12-02T00:25:40.338Z,26.93
2018-12-02T00:28:10.383Z,24.17
2018-12-02T00:30:39.848Z,26.33
2018-12-02T00:33:08.746Z,23.60
2018-12-02T00:35:37.595Z,25.20
2018-12-02T00:38:07.819Z,24.10
2018-12-02T00:40:36.708Z,23.73
2018-12-02T00:43:06.956Z,24.20
2018-12-02T00:45:38.575Z,21.57
2018-12-02T00:48:09.185Z,21.97
2018-12-02T00:50:38.443Z,21.20
2018-12-02T00:53:08.767Z,23.00
2018-12-02T00:55:40.268Z,22.83
2018-12-02T00:58:09.390Z,20.87
2018-12-02T01:00:38.442Z,21.87
2018-12-02T01:03:08.515Z,20.77
2018-12-02T01:05:37.532Z,22.63
2018-12-02T01:08:07.177Z,21.80
2018-12-02T01:10:36.571Z,21.87
2018-12-02T01:13:09.410Z,21.10
2018-12-02T01:15:39.193Z,21.97
2018-12-02T01:18:08.895Z,22.17
2018-12-02T01:20:38.859Z,19.60
2018-12-02T01:23:08.051Z,20.77
2018-12-02T01:25:37.326Z,20.70
2018-12-02T01:28:06.388Z,20.33
2018-12-02T01:30:35.375Z,18.97
2018-12-02T01:33:04.074Z,20.50
2018-12-02T01:35:32.713Z,20.20
2018-12-02T01:38:01.677Z,20.43
2018-12-02T01:40:30.545Z,20.60
2018-12-02T01:42:59.467Z,18.60
2018-12-02T01:45:28.729Z,19.00
2018-12-02T01:47:57.747Z,19.87
2018-12-02T01:50:27.611Z,19.80
2018-12-02T01:52:57.550Z,19.17
2018-12-02T01:55:26.269Z,20.43
2018-12-02T01:57:54.940Z,21.27
2018-12-02T02:00:27.627Z,20.87
2018-12-02T02:02:57.049Z,20.30
2018-12-02T02:05:26.626Z,19.63
2018-12-02T02:07:55.453Z,20.27
2018-12-02T02:10:25.551Z,20.80
2018-12-02T02:12:54.257Z,21.27
2018-12-02T02:15:23.306Z,21.80
2018-12-02T02:17:51.954Z,22.10
2018-12-02T02:20:21.875Z,21.83
2018-12-02T02:22:50.633Z,22.73
2018-12-02T02:25:20.139Z,22.10
2018-12-02T02:27:50.208Z,22.27
2018-12-02T02:30:21.034Z,23.93
2018-12-02T02:32:50.646Z,23.17
2018-12-02T02:35:20.251Z,25.37
2018-12-02T02:37:49.640Z,22.23
2018-12-02T02:40:20.590Z,23.13
2018-12-02T02:42:49.322Z,24.67
2018-12-02T02:45:18.347Z,25.43
2018-12-02T02:47:47.122Z,25.43
2018-12-02T02:50:18.187Z,25.73
2018-12-02T02:52:49.939Z,24.13
2018-12-02T02:55:18.659Z,22.63
2018-12-02T02:57:47.338Z,22.87
2018-12-02T03:00:17.142Z,23.93
2018-12-02T03:02:45.937Z,22.67
2018-12-02T03:05:15.497Z,21.30
2018-12-02T03:07:44.363Z,22.00
2018-12-02T03:10:16.030Z,21.93
2018-12-02T03:12:49.634Z,23.20
2018-12-02T03:15:21.158Z,25.03
2018-12-02T03:17:50.280Z,25.10
2018-12-02T03:20:20.348Z,26.97
2018-12-02T03:22:51.200Z,26.23
2018-12-02T03:25:21.011Z,28.27
2018-12-02T03:27:50.584Z,25.87
2018-12-02T03:30:20.950Z,26.97
2018-12-02T03:32:49.896Z,25.43
2018-12-02T03:35:20.838Z,25.10
2018-12-02T03:37:50.294Z,24.67
2018-12-02T03:40:23.583Z,24.67
2018-12-02T03:42:52.996Z,22.33
2018-12-02T03:45:23.392Z,23.37
2018-12-02T03:47:53.313Z,23.37
2018-12-02T03:50:22.913Z,23.40
2018-12-02T03:52:51.600Z,17.93
2018-12-02T03:55:20.478Z,19.13
2018-12-02T03:57:49.140Z,20.27
2018-12-02T04:00:21.869Z,20.67
2018-12-02T04:02:51.259Z,22.47
2018-12-02T04:05:21.117Z,25.50
2018-12-02T04:07:51.099Z,21.17
2018-12-02T04:10:21.150Z,20.90
2018-12-02T04:12:50.753Z,18.37
2018-12-02T04:15:23.170Z,17.37
2018-12-02T04:17:51.922Z,17.27
2018-12-02T04:20:21.041Z,17.47
2018-12-02T04:22:50.599Z,17.20
2018-12-02T04:25:23.634Z,17.67
2018-12-02T04:27:52.528Z,16.60
2018-12-02T04:30:22.044Z,16.80
2018-12-02T04:32:51.482Z,16.60
2018-12-02T04:35:25.470Z,17.20
2018-12-02T04:37:54.206Z,17.97
2018-12-02T04:40:24.349Z,18.30
2018-12-02T04:42:53.341Z,19.00
2018-12-02T04:45:23.000Z,19.97
2018-12-02T04:47:51.918Z,19.23
2018-12-02T04:50:25.676Z,19.53
2018-12-02T04:52:54.360Z,20.30
2018-12-02T04:55:23.268Z,21.43
2018-12-02T04:57:52.100Z,20.63
2018-12-02T05:00:21.735Z,21.07
2018-12-02T05:02:51.363Z,20.33
2018-12-02T05:05:24.758Z,23.27
2018-12-02T05:07:54.000Z,22.37
2018-12-02T05:10:23.019Z,24.17
2018-12-02T05:12:52.237Z,25.10
2018-12-02T05:15:22.273Z,21.80
2018-12-02T05:17:51.166Z,26.17
2018-12-02T05:20:20.905Z,29.80
2018-12-02T05:22:49.824Z,28.83
2018-12-02T05:25:19.128Z,25.23
2018-12-02T05:27:47.843Z,26.10
2018-12-02T05:30:17.745Z,25.13
2018-12-02T05:32:47.496Z,24.70
2018-12-02T05:35:16.438Z,24.80
2018-12-02T05:37:45.470Z,25.33
2018-12-02T05:40:18.382Z,25.23
2018-12-02T05:42:47.601Z,26.47
2018-12-02T05:45:17.481Z,28.33
2018-12-02T05:47:46.500Z,27.33
2018-12-02T05:50:29.896Z,26.57
2018-12-02T05:52:59.762Z,26.73
2018-12-02T05:55:31.724Z,25.17
2018-12-02T05:58:00.487Z,25.07
2018-12-02T06:00:29.375Z,25.13
2018-12-02T06:02:58.179Z,24.47
2018-12-02T06:05:27.090Z,26.30
2018-12-02T06:07:55.905Z,25.73
2018-12-02T06:10:25.135Z,27.40
2018-12-02T06:12:53.944Z,29.37
2018-12-02T06:15:23.368Z,30.40
2018-12-02T06:17:52.220Z,30.73
2018-12-02T06:20:22.353Z,33.50
2018-12-02T06:22:52.365Z,32.57
2018-12-02T06:25:21.807Z,34.23
2018-12-02T06:27:50.920Z,33.50
2018-12-02T06:30:22.928Z,36.17
2018-12-02T06:32:54.687Z,40.37
2018-12-02T06:35:23.655Z,42.67
2018-12-02T06:37:54.666Z,51.60
2018-12-02T06:40:24.647Z,62.07
2018-12-02T06:42:53.273Z,70.13
2018-12-02T06:45:22.365Z,70.87
2018-12-02T06:47:51.006Z,92.83
2018-12-02T06:50:22.497Z,90.03
2018-12-02T06:52:51.270Z,74.87
2018-12-02T06:55:48.441Z,70.27
2018-12-02T06:58:27.408Z,71.67
2018-12-02T07:01:04.983Z,63.67
2018-12-02T07:03:42.628Z,55.83
2018-12-02T07:06:11.454Z,57.17
2018-12-02T07:08:40.078Z,61.10
2018-12-02T07:11:08.982Z,59.80
2018-12-02T07:13:37.596Z,63.83
2018-12-02T07:16:06.364Z,68.73
2018-12-02T07:18:41.218Z,70.17
2018-12-02T07:21:17.475Z,71.50
2018-12-02T07:23:48.302Z,73.20
2018-12-02T07:26:19.742Z,77.73
2018-12-02T07:28:48.319Z,75.60
2018-12-02T07:31:16.996Z,78.13
2018-12-02T07:33:45.603Z,83.47
2018-12-02T07:36:14.226Z,85.10
2018-12-02T07:38:48.721Z,83.63
2018-12-02T07:41:17.396Z,79.80
2018-12-02T07:43:46.066Z,81.87
2018-12-02T07:46:14.664Z,76.80
2018-12-02T07:48:43.320Z,81.17
2018-12-02T07:51:12.205Z,71.53
2018-12-02T07:53:40.854Z,69.70
2018-12-02T07:56:09.815Z,76.10
2018-12-02T07:58:38.442Z,72.57
2018-12-02T08:01:07.467Z,68.77
2018-12-02T08:03:36.051Z,69.10
2018-12-02T08:06:04.937Z,68.90
2018-12-02T08:08:33.652Z,67.40
2018-12-02T08:11:02.335Z,67.87
2018-12-02T08:13:30.965Z,73.00
2018-12-02T08:15:59.590Z,68.87
2018-12-02T08:18:28.315Z,69.60
2018-12-02T08:20:56.917Z,71.60
2018-12-02T08:23:25.484Z,69.90
2018-12-02T08:25:54.145Z,72.33
2018-12-02T08:28:22.791Z,74.77
2018-12-02T08:30:51.360Z,75.43
2018-12-02T08:33:19.941Z,71.53
2018-12-02T08:35:48.595Z,74.73
2018-12-02T08:38:17.215Z,69.00
2018-12-02T08:40:45.980Z,68.53
2018-12-02T08:43:14.573Z,68.97
2018-12-02T08:45:43.475Z,74.60
2018-12-02T08:48:12.095Z,72.93
2018-12-02T08:50:40.710Z,70.53
2018-12-02T08:53:09.319Z,72.30
2018-12-02T08:55:37.964Z,72.17
2018-12-02T08:58:06.533Z,70.03
2018-12-02T09:00:35.131Z,66.23
2018-12-02T09:03:06.322Z,66.43
2018-12-02T09:05:34.950Z,66.30
2018-12-02T09:08:03.788Z,66.73
2018-12-02T09:10:33.406Z,66.97
2018-12-02T09:13:03.439Z,65.10
2018-12-02T09:15:32.207Z,65.83
2018-12-02T09:18:00.769Z,65.90
2018-12-02T09:20:33.682Z,61.80
2018-12-02T09:23:02.322Z,63.50
2018-12-02T09:25:31.316Z,68.10
2018-12-02T09:27:59.886Z,78.73
2018-12-02T09:30:29.633Z,72.97
2018-12-02T09:32:58.196Z,70.90
2018-12-02T09:35:26.778Z,64.23
2018-12-02T09:37:55.343Z,52.80
2018-12-02T09:40:23.943Z,51.60
2018-12-02T09:42:53.660Z,54.47
2018-12-02T09:45:24.351Z,56.07
2018-12-02T09:47:53.534Z,57.40
2018-12-02T09:50:22.310Z,48.80
2018-12-02T09:52:50.935Z,53.47
2018-12-02T09:55:21.786Z,60.43
2018-12-02T09:57:50.825Z,50.47
2018-12-02T10:00:20.489Z,49.33
2018-12-02T10:02:49.137Z,52.83
2018-12-02T10:05:18.033Z,47.77
2018-12-02T10:07:46.729Z,50.53
2018-12-02T10:10:22.125Z,46.80
2018-12-02T10:12:48.246Z,46.13
2018-12-02T10:15:17.067Z,48.90
2018-12-02T10:17:45.700Z,47.37
2018-12-02T10:20:16.612Z,44.10
2018-12-02T10:22:46.805Z,52.27
2018-12-02T10:25:17.029Z,43.77
2018-12-02T10:27:46.083Z,51.87
2018-12-02T10:30:30.472Z,46.27
2018-12-02T10:32:59.102Z,45.73
2018-12-02T10:35:27.723Z,47.70
2018-12-02T10:37:56.279Z,36.63
2018-12-02T10:40:26.004Z,38.60
2018-12-02T10:42:54.770Z,41.10
2018-12-02T10:45:26.553Z,41.37
2018-12-02T10:47:56.558Z,39.53
2018-12-02T10:50:42.263Z,36.80
2018-12-02T10:53:16.435Z,38.37
2018-12-02T10:55:48.509Z,32.30
2018-12-02T10:58:20.694Z,35.07
2018-12-02T11:00:55.523Z,33.27
2018-12-02T11:03:24.295Z,33.40
2018-12-02T11:05:53.075Z,32.13
2018-12-02T11:08:21.778Z,31.13
2018-12-02T11:10:50.546Z,34.17
2018-12-02T11:13:19.178Z,31.67
2018-12-02T11:15:48.060Z,29.63
2018-12-02T11:18:16.704Z,29.07
2018-12-02T11:20:45.365Z,31.53
2018-12-02T11:23:14.028Z,30.67
2018-12-02T11:25:42.805Z,30.30
2018-12-02T11:28:11.738Z,32.23
2018-12-02T11:30:47.083Z,30.67
2018-12-02T11:33:15.926Z,29.30
2018-12-02T11:35:44.559Z,31.47
2018-12-02T11:38:13.326Z,30.47
2018-12-02T11:40:42.405Z,30.97
2018-12-02T11:43:10.985Z,32.07
2018-12-02T11:45:39.868Z,35.83
2018-12-02T11:48:09.241Z,36.57
2018-12-02T11:50:38.555Z,35.30
2018-12-02T11:53:07.619Z,35.90
2018-12-02T11:55:36.350Z,36.03
2018-12-02T11:58:05.161Z,37.47
2018-12-02T12:00:35.563Z,31.00
2018-12-02T12:03:04.153Z,25.97
2018-12-02T12:05:32.959Z,20.97
2018-12-02T12:08:01.616Z,18.53
2018-12-02T12:10:30.274Z,15.97
2018-12-02T12:13:00.634Z,13.63
2018-12-02T12:15:30.042Z,12.87
2018-12-02T12:17:59.355Z,13.87
2018-12-02T12:20:35.537Z,15.77
2018-12-02T12:23:04.113Z,14.27
2018-12-02T12:25:32.948Z,15.13
2018-12-02T12:28:01.549Z,16.40
2018-12-02T12:30:31.603Z,14.60
2018-12-02T12:33:00.351Z,16.27
2018-12-02T12:35:29.297Z,14.70
2018-12-02T12:37:57.952Z,13.30
2018-12-02T12:40:29.996Z,14.07
2018-12-02T12:43:03.710Z,12.10
2018-12-02T12:45:32.502Z,12.23
2018-12-02T12:48:01.409Z,12.37
2018-12-02T12:50:30.399Z,12.23
2018-12-02T12:52:59.245Z,12.07
2018-12-02T12:55:29.084Z,13.80
2018-12-02T12:57:59.981Z,11.90
2018-12-02T13:00:30.570Z,13.73
2018-12-02T13:03:00.781Z,15.13
2018-12-02T13:05:31.390Z,14.50
2018-12-02T13:08:02.417Z,15.90
2018-12-02T13:10:33.233Z,15.80
2018-12-02T13:13:03.045Z,15.43
2018-12-02T13:15:34.746Z,13.43
2018-12-02T13:18:07.309Z,14.00
2018-12-02T13:20:41.953Z,13.77
2018-12-02T13:23:12.635Z,13.63
2018-12-02T13:25:42.841Z,13.97
2018-12-02T13:28:12.895Z,12.73
2018-12-02T13:30:42.100Z,13.23
2018-12-02T13:33:10.933Z,11.67
2018-12-02T13:35:40.420Z,13.07
2018-12-02T13:38:09.112Z,11.87
2018-12-02T13:40:39.424Z,14.17
2018-12-02T13:43:12.003Z,13.00
2018-12-02T13:45:41.003Z,12.33
2018-12-02T13:48:09.730Z,13.90
2018-12-02T13:50:39.009Z,15.10
2018-12-02T13:53:07.443Z,16.70
2018-12-02T13:55:36.439Z,15.33
2018-12-02T13:58:05.349Z,17.37
2018-12-02T14:00:34.044Z,18.23
2018-12-02T14:03:05.214Z,18.87
2018-12-02T14:05:33.956Z,18.77
2018-12-02T14:08:02.552Z,19.77
2018-12-02T14:10:31.455Z,19.67
2018-12-02T14:13:06.928Z,16.90
2018-12-02T14:15:45.021Z,18.37
2018-12-02T14:18:46.856Z,17.33
2018-12-02T14:21:15.738Z,17.10
2018-12-02T14:23:44.801Z,15.97
2018-12-02T14:26:16.592Z,15.93
2018-12-02T14:28:50.588Z,15.23
2018-12-02T14:31:19.988Z,15.97
2018-12-02T14:33:48.757Z,19.63
2018-12-02T14:36:17.356Z,18.70
2018-12-02T14:38:46.009Z,18.13
2018-12-02T14:41:14.742Z,19.70
2018-12-02T14:43:43.326Z,21.43
2018-12-02T14:46:12.304Z,19.50
2018-12-02T14:48:40.896Z,20.63
2018-12-02T14:51:09.736Z,21.30
2018-12-02T14:53:38.447Z,22.37
2018-12-02T14:56:07.518Z,22.63
2018-12-02T14:58:36.103Z,23.20
2018-12-02T15:01:05.043Z,21.03
2018-12-02T15:03:33.987Z,23.63
2018-12-02T15:06:03.233Z,21.20
2018-12-02T15:08:31.823Z,22.80
2018-12-02T15:11:00.439Z,25.33
2018-12-02T15:13:29.060Z,25.23
2018-12-02T15:15:57.968Z,27.70
2018-12-02T15:18:27.112Z,30.80
2018-12-02T15:20:56.305Z,30.30
2018-12-02T15:23:25.101Z,26.40
2018-12-02T15:25:53.883Z,25.43
2018-12-02T15:28:22.559Z,26.77
2018-12-02T15:30:51.720Z,27.67
2018-12-02T15:33:20.509Z,25.67
2018-12-02T15:35:49.669Z,33.07
2018-12-02T15:38:18.512Z,28.00
2018-12-02T15:40:47.506Z,29.50
2018-12-02T15:43:16.466Z,30.40
2018-12-02T15:45:45.557Z,28.10
2018-12-02T15:48:14.384Z,28.93
2018-12-02T15:50:43.324Z,31.43
2018-12-02T15:53:12.019Z,30.07
2018-12-02T15:55:40.896Z,26.23
2018-12-02T15:58:11.782Z,22.57
2018-12-02T16:00:43.200Z,21.27
2018-12-02T16:03:11.980Z,20.43
2018-12-02T16:05:41.109Z,18.93
2018-12-02T16:08:10.050Z,18.57
2018-12-02T16:10:39.061Z,20.00
2018-12-02T16:13:09.600Z,20.27
2018-12-02T16:15:38.348Z,20.40
2018-12-02T16:18:08.816Z,21.03
2018-12-02T16:20:43.359Z,22.93
2018-12-02T16:23:12.093Z,24.37
2018-12-02T16:25:41.118Z,25.83
2018-12-02T16:28:10.039Z,24.73
2018-12-02T16:30:38.932Z,24.13
2018-12-02T16:33:07.841Z,22.60
2018-12-02T16:35:36.501Z,21.47
2018-12-02T16:38:06.094Z,22.33
2018-12-02T16:40:35.018Z,21.37
2018-12-02T16:43:03.750Z,21.03
2018-12-02T16:45:32.643Z,19.53
2018-12-02T16:48:01.318Z,21.20
2018-12-02T16:50:34.302Z,19.97
2018-12-02T16:53:10.921Z,20.47
2018-12-02T16:55:47.448Z,20.03
2018-12-02T16:58:38.119Z,19.63
2018-12-02T17:01:14.890Z,20.90
2018-12-02T17:03:43.698Z,20.50
2018-12-02T17:06:12.806Z,21.43
2018-12-02T17:08:41.591Z,22.50
2018-12-02T17:11:10.491Z,24.20
2018-12-02T17:13:39.421Z,26.20
2018-12-02T17:16:08.297Z,27.57
2018-12-02T17:18:37.128Z,28.90
2018-12-02T17:21:07.195Z,31.83
2018-12-02T17:23:35.948Z,33.00
2018-12-02T17:26:05.005Z,33.90
2018-12-02T17:28:33.766Z,33.97
2018-12-02T17:31:10.738Z,37.70
2018-12-02T17:33:39.324Z,38.17
2018-12-02T17:36:08.217Z,39.43
2018-12-02T17:38:36.778Z,41.97
2018-12-02T17:41:07.696Z,45.10
2018-12-02T17:43:36.247Z,45.13
2018-12-02T17:46:06.094Z,48.17
2018-12-02T17:48:34.684Z,48.13
2018-12-02T17:51:03.511Z,52.97
2018-12-02T17:53:32.105Z,52.40
2018-12-02T17:56:00.989Z,50.97
2018-12-02T17:58:29.542Z,54.50
2018-12-02T18:00:58.146Z,54.70
2018-12-02T18:03:29.867Z,57.57
2018-12-02T18:05:58.719Z,56.70
2018-12-02T18:08:27.271Z,57.33
2018-12-02T18:10:56.084Z,60.33
2018-12-02T18:13:24.659Z,64.43
2018-12-02T18:15:53.501Z,60.90
2018-12-02T18:18:22.126Z,60.93
2018-12-02T18:20:51.085Z,60.77
2018-12-02T18:23:19.884Z,63.50
2018-12-02T18:25:48.658Z,66.53
2018-12-02T18:28:17.561Z,65.07
2018-12-02T18:30:46.510Z,63.57
2018-12-02T18:33:16.289Z,64.27
2018-12-02T18:36:19.498Z,61.90
2018-12-02T18:38:49.049Z,59.33
2018-12-02T18:41:21.001Z,59.77
2018-12-02T18:43:50.079Z,58.53
2018-12-02T18:46:19.809Z,59.07
2018-12-02T18:48:48.842Z,62.70
2018-12-02T18:51:17.766Z,58.07
2018-12-02T18:53:46.722Z,59.57
2018-12-02T18:56:16.975Z,58.60
2018-12-02T18:58:45.849Z,58.33
2018-12-02T19:01:15.051Z,57.00
2018-12-02T19:03:44.460Z,51.47
2018-12-02T19:06:13.209Z,49.93
2018-12-02T19:08:42.122Z,49.87
2018-12-02T19:11:11.257Z,53.00
2018-12-02T19:13:43.547Z,50.63
2018-12-02T19:16:09.539Z,49.00
2018-12-02T19:18:39.271Z,47.73
2018-12-02T19:21:11.363Z,50.53
2018-12-02T19:23:41.450Z,46.77
2018-12-02T19:26:10.598Z,47.93
2018-12-02T19:28:40.450Z,51.70
2018-12-02T19:31:09.373Z,50.10
2018-12-02T19:33:38.186Z,42.87
2018-12-02T19:36:14.292Z,47.20
2018-12-02T19:38:43.014Z,47.27
2018-12-02T19:41:11.701Z,48.57
2018-12-02T19:43:40.349Z,45.77
2018-12-02T19:46:09.632Z,47.80
2018-12-02T19:48:39.082Z,49.80
2018-12-02T19:51:07.761Z,48.70
2018-12-02T19:53:36.382Z,47.47
2018-12-02T19:56:05.037Z,44.20
2018-12-02T19:58:34.027Z,45.37
2018-12-02T20:01:03.032Z,43.57
2018-12-02T20:03:31.830Z,41.77
2018-12-02T20:06:00.630Z,45.97
2018-12-02T20:08:29.681Z,44.27
2018-12-02T20:10:58.657Z,42.80
2018-12-02T20:13:34.138Z,43.63
2018-12-02T20:16:08.520Z,45.80
2018-12-02T20:18:37.389Z,45.27
2018-12-02T20:21:06.580Z,44.47
2018-12-02T20:23:40.665Z,54.67
2018-12-02T20:26:09.847Z,70.90
2018-12-02T20:28:41.570Z,73.30
2018-12-02T20:31:15.061Z,72.03
2018-12-02T20:33:43.765Z,62.47
2018-12-02T20:36:13.022Z,62.03
2018-12-02T20:38:41.725Z,52.27
2018-12-02T20:41:11.029Z,51.27
2018-12-02T20:43:40.351Z,53.07
2018-12-02T20:46:08.967Z,54.60
2018-12-02T20:48:37.717Z,56.70
2018-12-02T20:51:06.918Z,58.17
2018-12-02T20:53:35.552Z,54.30
2018-12-02T20:56:04.400Z,55.17
2018-12-02T20:58:33.392Z,53.20
2018-12-02T21:01:02.057Z,56.80
2018-12-02T21:03:33.223Z,55.17
2018-12-02T21:06:09.561Z,54.80
2018-12-02T21:08:38.293Z,53.17
2018-12-02T21:11:06.968Z,51.30
2018-12-02T21:13:35.945Z,49.73
2018-12-02T21:16:05.171Z,50.20
2018-12-02T21:18:34.061Z,52.20
2018-12-02T21:21:02.855Z,51.10
2018-12-02T21:23:31.458Z,53.13
2018-12-02T21:26:00.337Z,55.17
2018-12-02T21:28:28.933Z,55.37
2018-12-02T21:30:57.827Z,53.07
2018-12-02T21:33:26.403Z,52.03
2018-12-02T21:35:55.002Z,52.70
2018-12-02T21:38:23.664Z,51.30
2018-12-02T21:40:52.331Z,47.70
2018-12-02T21:43:20.984Z,48.57
2018-12-02T21:45:49.614Z,43.20
2018-12-02T21:48:19.949Z,44.40
2018-12-02T21:50:52.030Z,43.47
2018-12-02T21:53:20.590Z,44.17
2018-12-02T21:55:49.445Z,45.03
2018-12-02T21:58:18.019Z,45.53
2018-12-02T22:01:22.618Z,44.73
2018-12-02T22:03:51.218Z,40.37
2018-12-02T22:06:20.121Z,41.93
2018-12-02T22:08:48.762Z,39.40
2018-12-02T22:11:17.382Z,42.90
2018-12-02T22:13:46.017Z,43.30
2018-12-02T22:16:14.657Z,42.10
2018-12-02T22:18:43.269Z,43.10
2018-12-02T22:21:12.245Z,40.90
2018-12-02T22:23:40.930Z,40.97
2018-12-02T22:26:09.847Z,41.40
2018-12-02T22:28:38.782Z,39.93
2018-12-02T22:31:07.498Z,41.30
2018-12-02T22:33:36.133Z,42.17
2018-12-02T22:36:04.769Z,43.93
2018-12-02T22:38:33.344Z,44.93
2018-12-02T22:41:02.288Z,47.00
2018-12-02T22:43:30.882Z,48.63
2018-12-02T22:46:03.771Z,48.93
2018-12-02T22:48:32.387Z,51.30
2018-12-02T22:51:01.001Z,51.03
2018-12-02T22:53:29.635Z,52.50
2018-12-02T22:55:58.605Z,53.37
2018-12-02T22:58:27.189Z,50.70
2018-12-02T23:01:01.508Z,54.27
2018-12-02T23:03:30.098Z,52.43
2018-12-02T23:05:59.131Z,49.70
2018-12-02T23:08:27.806Z,53.87
2018-12-02T23:10:56.580Z,54.07
2018-12-02T23:13:25.278Z,52.70
2018-12-02T23:15:54.180Z,54.03
2018-12-02T23:18:22.830Z,55.00
2018-12-02T23:20:51.871Z,51.63
2018-12-02T23:23:20.490Z,55.33
2018-12-02T23:25:49.153Z,54.17
2018-12-02T23:28:17.752Z,51.57
2018-12-02T23:30:46.511Z,53.37
2018-12-02T23:33:15.219Z,54.57
2018-12-02T23:35:44.192Z,53.57
2018-12-02T23:38:12.856Z,50.83
2018-12-02T23:40:41.708Z,48.67
2018-12-02T23:43:10.423Z,49.90
2018-12-02T23:45:39.143Z,47.93
2018-12-02T23:48:07.851Z,51.67
2018-12-02T23:50:36.628Z,50.40
2018-12-02T23:53:06.231Z,47.00
2018-12-02T23:55:35.255Z,47.40
2018-12-02T23:58:03.948Z,46.67
